UPDATE 02.09.20 Die Stationsgrafiken wurden erweitert. Temperaturgrafik und Regentage unter Almanach -> Seperate Stationsgrafiken -> Temperatur
Besuchen Sie den Menüpunkt "Almanach / History" WU-Grafiken um Wetterdaten über die Jahre zu vergleichen!
Die Daten stammen von meiner Wetterstation und wurden von Weatherunderground aufgezeichnet.

Rindlberg West Mehr Informationen Rindlberg West


Stuetzi - Rindlberg Ost Mehr Informationen Stuetzi - Rindlberg Ost


Regenradar Mehr Informationen rain snow radar


Sie finden meine Wetter-Infos auch auf:

Weather Underground

AWEKAS



METAR-Meldungen aus der Umgebung

   
LOWL - Linz
Aktualisierung: 24-01-2021 12:20
Teilweise bewölkt  
Teilweise bewölkt  
   Wind: Westen 24.1 km/h
Wind: Westen 24.1 km/h
Temperatur: 4°C
Gefühlt: -1°C
Taupunkt: -2°C
Luftfeuchte: 65%
Luftdruck: 1000 hPa
Wolken: Teilweise bewölkt
Sichtbarkeit: Mehr als 10 km
Bewölkung: leicht bewölkt 2200 ft,
Teilweise bewölkt 4000 ft
LOWL 241120Z 27013KT 9999 FEW022 SCT040 04/M02 Q1000 NOSIG
LOWW - Vienna
Aktualisierung: 24-01-2021 12:50
leicht bewölkt  
leicht bewölkt  
   Wind: Westen 31.5 km/h
Wind: Westen 31.5 km/h
Temperatur: 6°C
Gefühlt: 1°C
Taupunkt: -2°C
Luftfeuchte: 57%
Luftdruck: 999 hPa
Wolken: leicht bewölkt
Sichtbarkeit: Mehr als 10 km
Bewölkung: leicht bewölkt 3400 ft
LOWW 241150Z 28017KT 250V310 9999 FEW034 06/M02 Q0999 NOSIG
 

Script entwickelt von  Saratoga-weather.org Angepasst für das Template von  Weerstation Leuven